sensor_id;sensor_type;location;lat;lon;timestamp;P1;durP1;ratioP1;P2;durP2;ratioP2
68168;SDS011;54981;50.206;15.978;2022-09-13T00:01:11;16.13;;;14.23;;
68168;SDS011;54981;50.206;15.978;2022-09-13T00:03:36;14.32;;;12.90;;
68168;SDS011;54981;50.206;15.978;2022-09-13T00:06:06;19.17;;;14.68;;
68168;SDS011;54981;50.206;15.978;2022-09-13T00:08:32;14.18;;;12.65;;
68168;SDS011;54981;50.206;15.978;2022-09-13T00:10:58;17.00;;;13.30;;
68168;SDS011;54981;50.206;15.978;2022-09-13T00:13:23;16.00;;;14.10;;
68168;SDS011;54981;50.206;15.978;2022-09-13T00:15:48;16.73;;;14.13;;
68168;SDS011;54981;50.206;15.978;2022-09-13T00:18:14;17.10;;;13.80;;
68168;SDS011;54981;50.206;15.978;2022-09-13T00:20:41;16.50;;;14.80;;
68168;SDS011;54981;50.206;15.978;2022-09-13T00:23:06;16.58;;;13.63;;
68168;SDS011;54981;50.206;15.978;2022-09-13T00:25:32;17.45;;;13.55;;
68168;SDS011;54981;50.206;15.978;2022-09-13T00:27:58;16.85;;;14.57;;
68168;SDS011;54981;50.206;15.978;2022-09-13T00:30:23;16.10;;;14.32;;
68168;SDS011;54981;50.206;15.978;2022-09-13T00:32:48;15.73;;;13.98;;
68168;SDS011;54981;50.206;15.978;2022-09-13T00:35:13;15.88;;;14.27;;
68168;SDS011;54981;50.206;15.978;2022-09-13T00:37:39;15.40;;;13.55;;
68168;SDS011;54981;50.206;15.978;2022-09-13T00:40:05;17.95;;;14.13;;
68168;SDS011;54981;50.206;15.978;2022-09-13T00:42:31;15.43;;;13.82;;
68168;SDS011;54981;50.206;15.978;2022-09-13T00:44:57;14.23;;;12.82;;
68168;SDS011;54981;50.206;15.978;2022-09-13T00:47:25;14.20;;;12.77;;
68168;SDS011;54981;50.206;15.978;2022-09-13T00:55:41;14.80;;;13.43;;
68168;SDS011;54981;50.206;15.978;2022-09-13T00:58:15;16.05;;;14.07;;
68168;SDS011;54981;50.206;15.978;2022-09-13T01:00:44;16.05;;;14.00;;
68168;SDS011;54981;50.206;15.978;2022-09-13T01:03:12;18.60;;;14.20;;
68168;SDS011;54981;50.206;15.978;2022-09-13T01:05:41;16.17;;;13.95;;
68168;SDS011;54981;50.206;15.978;2022-09-13T01:08:10;15.70;;;14.10;;
68168;SDS011;54981;50.206;15.978;2022-09-13T01:10:46;16.23;;;14.63;;
68168;SDS011;54981;50.206;15.978;2022-09-13T01:13:22;14.55;;;12.90;;
68168;SDS011;54981;50.206;15.978;2022-09-13T01:15:50;15.50;;;12.77;;
68168;SDS011;54981;50.206;15.978;2022-09-13T01:18:16;15.77;;;14.07;;
68168;SDS011;54981;50.206;15.978;2022-09-13T01:46:13;15.55;;;13.35;;
68168;SDS011;54981;50.206;15.978;2022-09-13T01:51:22;14.32;;;12.93;;
68168;SDS011;54981;50.206;15.978;2022-09-13T01:54:08;13.15;;;11.88;;
68168;SDS011;54981;50.206;15.978;2022-09-13T01:56:53;13.55;;;12.15;;
68168;SDS011;54981;50.206;15.978;2022-09-13T02:02:22;16.08;;;12.63;;
68168;SDS011;54981;50.206;15.978;2022-09-13T02:05:23;13.63;;;11.57;;
68168;SDS011;54981;50.206;15.978;2022-09-13T02:07:56;14.63;;;13.23;;
68168;SDS011;54981;50.206;15.978;2022-09-13T02:10:32;12.93;;;11.73;;
68168;SDS011;54981;50.206;15.978;2022-09-13T02:13:00;13.15;;;11.80;;
68168;SDS011;54981;50.206;15.978;2022-09-13T02:15:33;15.05;;;13.30;;
68168;SDS011;54981;50.206;15.978;2022-09-13T02:18:09;14.57;;;13.18;;
68168;SDS011;54981;50.206;15.978;2022-09-13T02:20:40;17.10;;;13.02;;
68168;SDS011;54981;50.206;15.978;2022-09-13T02:23:12;16.13;;;12.10;;
68168;SDS011;54981;50.206;15.978;2022-09-13T02:25:45;13.65;;;12.15;;
68168;SDS011;54981;50.206;15.978;2022-09-13T02:28:13;15.15;;;13.55;;
68168;SDS011;54981;50.206;15.978;2022-09-13T02:30:44;17.13;;;13.57;;
68168;SDS011;54981;50.206;15.978;2022-09-13T02:33:14;15.18;;;13.68;;
68168;SDS011;54981;50.206;15.978;2022-09-13T02:35:50;14.57;;;13.07;;
68168;SDS011;54981;50.206;15.978;2022-09-13T02:38:38;12.75;;;11.57;;
68168;SDS011;54981;50.206;15.978;2022-09-13T02:41:13;14.65;;;13.35;;
68168;SDS011;54981;50.206;15.978;2022-09-13T02:43:47;14.85;;;12.82;;
68168;SDS011;54981;50.206;15.978;2022-09-13T02:51:42;14.27;;;12.90;;
68168;SDS011;54981;50.206;15.978;2022-09-13T02:54:21;14.82;;;13.32;;
68168;SDS011;54981;50.206;15.978;2022-09-13T02:57:12;16.80;;;13.23;;
68168;SDS011;54981;50.206;15.978;2022-09-13T02:59:42;15.57;;;13.98;;
68168;SDS011;54981;50.206;15.978;2022-09-13T03:02:11;15.57;;;14.02;;
68168;SDS011;54981;50.206;15.978;2022-09-13T03:04:39;14.88;;;13.48;;
68168;SDS011;54981;50.206;15.978;2022-09-13T03:07:08;15.30;;;13.00;;
68168;SDS011;54981;50.206;15.978;2022-09-13T03:09:34;15.00;;;13.52;;
68168;SDS011;54981;50.206;15.978;2022-09-13T03:18:13;14.73;;;12.73;;
68168;SDS011;54981;50.206;15.978;2022-09-13T03:20:49;16.30;;;12.55;;
68168;SDS011;54981;50.206;15.978;2022-09-13T03:23:36;13.65;;;12.35;;
68168;SDS011;54981;50.206;15.978;2022-09-13T03:26:19;13.68;;;11.32;;
68168;SDS011;54981;50.206;15.978;2022-09-13T03:31:44;13.50;;;12.15;;
68168;SDS011;54981;50.206;15.978;2022-09-13T03:39:42;14.13;;;12.82;;
68168;SDS011;54981;50.206;15.978;2022-09-13T03:45:05;13.60;;;12.20;;
68168;SDS011;54981;50.206;15.978;2022-09-13T03:47:33;17.20;;;13.10;;
68168;SDS011;54981;50.206;15.978;2022-09-13T03:50:00;15.02;;;13.52;;
68168;SDS011;54981;50.206;15.978;2022-09-13T03:52:27;15.65;;;14.02;;
68168;SDS011;54981;50.206;15.978;2022-09-13T03:54:53;15.23;;;11.27;;
68168;SDS011;54981;50.206;15.978;2022-09-13T03:57:19;13.63;;;12.25;;
68168;SDS011;54981;50.206;15.978;2022-09-13T03:59:53;15.35;;;12.20;;
68168;SDS011;54981;50.206;15.978;2022-09-13T04:02:21;13.60;;;12.30;;
68168;SDS011;54981;50.206;15.978;2022-09-13T04:04:47;13.60;;;12.20;;
68168;SDS011;54981;50.206;15.978;2022-09-13T04:07:14;13.20;;;11.90;;
68168;SDS011;54981;50.206;15.978;2022-09-13T04:09:42;14.07;;;12.65;;
68168;SDS011;54981;50.206;15.978;2022-09-13T04:12:08;14.65;;;13.15;;
68168;SDS011;54981;50.206;15.978;2022-09-13T04:14:38;14.70;;;13.40;;
68168;SDS011;54981;50.206;15.978;2022-09-13T04:17:04;15.25;;;13.82;;
68168;SDS011;54981;50.206;15.978;2022-09-13T04:19:30;14.23;;;12.80;;
68168;SDS011;54981;50.206;15.978;2022-09-13T04:21:55;14.50;;;13.13;;
68168;SDS011;54981;50.206;15.978;2022-09-13T04:24:23;14.35;;;12.88;;
68168;SDS011;54981;50.206;15.978;2022-09-13T04:26:53;15.82;;;14.35;;
68168;SDS011;54981;50.206;15.978;2022-09-13T04:29:20;15.40;;;13.85;;
68168;SDS011;54981;50.206;15.978;2022-09-13T04:31:47;16.15;;;14.00;;
68168;SDS011;54981;50.206;15.978;2022-09-13T04:34:14;15.70;;;14.10;;
68168;SDS011;54981;50.206;15.978;2022-09-13T04:36:39;15.27;;;13.73;;
68168;SDS011;54981;50.206;15.978;2022-09-13T04:39:05;17.10;;;15.50;;
68168;SDS011;54981;50.206;15.978;2022-09-13T04:41:30;16.55;;;13.75;;
68168;SDS011;54981;50.206;15.978;2022-09-13T04:43:57;14.48;;;13.18;;
68168;SDS011;54981;50.206;15.978;2022-09-13T04:46:23;15.02;;;13.73;;
68168;SDS011;54981;50.206;15.978;2022-09-13T04:48:49;15.77;;;14.13;;
68168;SDS011;54981;50.206;15.978;2022-09-13T04:51:14;15.00;;;13.13;;
68168;SDS011;54981;50.206;15.978;2022-09-13T04:53:41;14.00;;;12.77;;
68168;SDS011;54981;50.206;15.978;2022-09-13T04:56:07;15.88;;;14.40;;
68168;SDS011;54981;50.206;15.978;2022-09-13T04:58:33;14.57;;;13.18;;
68168;SDS011;54981;50.206;15.978;2022-09-13T05:01:02;14.48;;;12.35;;
68168;SDS011;54981;50.206;15.978;2022-09-13T05:03:29;14.15;;;12.85;;
68168;SDS011;54981;50.206;15.978;2022-09-13T05:06:02;14.85;;;12.30;;
68168;SDS011;54981;50.206;15.978;2022-09-13T05:08:32;14.25;;;12.93;;
68168;SDS011;54981;50.206;15.978;2022-09-13T05:10:58;13.25;;;11.82;;
68168;SDS011;54981;50.206;15.978;2022-09-13T05:13:24;15.55;;;13.90;;
68168;SDS011;54981;50.206;15.978;2022-09-13T05:15:53;14.68;;;13.38;;
68168;SDS011;54981;50.206;15.978;2022-09-13T05:18:26;15.57;;;14.02;;
68168;SDS011;54981;50.206;15.978;2022-09-13T05:20:58;16.15;;;14.13;;
68168;SDS011;54981;50.206;15.978;2022-09-13T05:23:25;16.63;;;14.33;;
68168;SDS011;54981;50.206;15.978;2022-09-13T05:25:55;17.30;;;15.57;;
68168;SDS011;54981;50.206;15.978;2022-09-13T05:28:29;16.67;;;15.02;;
68168;SDS011;54981;50.206;15.978;2022-09-13T05:31:00;17.65;;;14.15;;
68168;SDS011;54981;50.206;15.978;2022-09-13T05:33:30;17.42;;;15.73;;
68168;SDS011;54981;50.206;15.978;2022-09-13T05:35:57;15.05;;;13.57;;
68168;SDS011;54981;50.206;15.978;2022-09-13T05:38:23;15.95;;;14.45;;
68168;SDS011;54981;50.206;15.978;2022-09-13T05:40:52;17.50;;;15.52;;
68168;SDS011;54981;50.206;15.978;2022-09-13T05:43:21;15.50;;;13.90;;
68168;SDS011;54981;50.206;15.978;2022-09-13T05:45:47;18.13;;;14.15;;
68168;SDS011;54981;50.206;15.978;2022-09-13T05:48:12;17.48;;;13.52;;
68168;SDS011;54981;50.206;15.978;2022-09-13T05:50:37;15.55;;;13.32;;
68168;SDS011;54981;50.206;15.978;2022-09-13T05:53:03;16.30;;;14.15;;
68168;SDS011;54981;50.206;15.978;2022-09-13T05:55:29;18.00;;;14.32;;
68168;SDS011;54981;50.206;15.978;2022-09-13T05:57:55;15.02;;;13.50;;
68168;SDS011;54981;50.206;15.978;2022-09-13T06:00:20;14.32;;;12.65;;
68168;SDS011;54981;50.206;15.978;2022-09-13T06:02:45;14.88;;;13.38;;
68168;SDS011;54981;50.206;15.978;2022-09-13T06:05:11;15.63;;;14.02;;
68168;SDS011;54981;50.206;15.978;2022-09-13T06:07:38;14.65;;;13.05;;
68168;SDS011;54981;50.206;15.978;2022-09-13T06:10:08;16.35;;;14.75;;
68168;SDS011;54981;50.206;15.978;2022-09-13T06:12:34;16.02;;;14.43;;
68168;SDS011;54981;50.206;15.978;2022-09-13T06:15:00;15.23;;;13.63;;
68168;SDS011;54981;50.206;15.978;2022-09-13T06:17:31;14.77;;;12.50;;
68168;SDS011;54981;50.206;15.978;2022-09-13T06:19:56;14.20;;;12.82;;
68168;SDS011;54981;50.206;15.978;2022-09-13T06:22:22;14.07;;;11.95;;
68168;SDS011;54981;50.206;15.978;2022-09-13T06:24:47;15.38;;;13.88;;
68168;SDS011;54981;50.206;15.978;2022-09-13T06:27:13;16.13;;;13.15;;
68168;SDS011;54981;50.206;15.978;2022-09-13T06:29:38;13.75;;;12.35;;
68168;SDS011;54981;50.206;15.978;2022-09-13T06:32:03;13.80;;;11.27;;
68168;SDS011;54981;50.206;15.978;2022-09-13T06:34:30;15.18;;;12.95;;
68168;SDS011;54981;50.206;15.978;2022-09-13T06:36:56;15.35;;;12.20;;
68168;SDS011;54981;50.206;15.978;2022-09-13T06:39:21;12.85;;;11.55;;
68168;SDS011;54981;50.206;15.978;2022-09-13T06:41:46;13.52;;;12.23;;
68168;SDS011;54981;50.206;15.978;2022-09-13T06:44:12;14.93;;;13.25;;
68168;SDS011;54981;50.206;15.978;2022-09-13T06:46:37;14.00;;;12.05;;
68168;SDS011;54981;50.206;15.978;2022-09-13T06:49:04;14.05;;;12.48;;
68168;SDS011;54981;50.206;15.978;2022-09-13T06:51:31;14.35;;;12.82;;
68168;SDS011;54981;50.206;15.978;2022-09-13T06:53:58;13.50;;;12.27;;
68168;SDS011;54981;50.206;15.978;2022-09-13T06:56:25;13.02;;;11.73;;
68168;SDS011;54981;50.206;15.978;2022-09-13T06:58:56;13.02;;;11.13;;
68168;SDS011;54981;50.206;15.978;2022-09-13T07:01:24;13.80;;;12.25;;
68168;SDS011;54981;50.206;15.978;2022-09-13T07:04:02;14.63;;;11.60;;
68168;SDS011;54981;50.206;15.978;2022-09-13T07:06:35;12.85;;;11.55;;
68168;SDS011;54981;50.206;15.978;2022-09-13T07:09:02;14.75;;;12.75;;
68168;SDS011;54981;50.206;15.978;2022-09-13T07:11:30;13.27;;;11.75;;
68168;SDS011;54981;50.206;15.978;2022-09-13T07:13:57;15.13;;;11.40;;
68168;SDS011;54981;50.206;15.978;2022-09-13T07:16:24;13.07;;;11.15;;
68168;SDS011;54981;50.206;15.978;2022-09-13T07:18:52;13.25;;;11.38;;
68168;SDS011;54981;50.206;15.978;2022-09-13T07:21:21;13.27;;;11.57;;
68168;SDS011;54981;50.206;15.978;2022-09-13T07:23:47;11.57;;;10.38;;
68168;SDS011;54981;50.206;15.978;2022-09-13T07:26:13;12.13;;;10.85;;
68168;SDS011;54981;50.206;15.978;2022-09-13T07:28:42;11.90;;;10.70;;
68168;SDS011;54981;50.206;15.978;2022-09-13T07:31:13;11.35;;;10.13;;
68168;SDS011;54981;50.206;15.978;2022-09-13T07:33:44;12.52;;;11.30;;
68168;SDS011;54981;50.206;15.978;2022-09-13T07:36:10;12.20;;;10.90;;
68168;SDS011;54981;50.206;15.978;2022-09-13T07:38:38;11.57;;;10.35;;
68168;SDS011;54981;50.206;15.978;2022-09-13T07:41:05;11.18;;;10.00;;
68168;SDS011;54981;50.206;15.978;2022-09-13T07:43:33;12.07;;;10.38;;
68168;SDS011;54981;50.206;15.978;2022-09-13T07:46:03;11.13;;;9.90;;
68168;SDS011;54981;50.206;15.978;2022-09-13T07:48:30;12.82;;;10.05;;
68168;SDS011;54981;50.206;15.978;2022-09-13T07:50:57;11.70;;;9.98;;
68168;SDS011;54981;50.206;15.978;2022-09-13T07:53:24;12.07;;;9.52;;
68168;SDS011;54981;50.206;15.978;2022-09-13T07:55:50;13.48;;;9.90;;
68168;SDS011;54981;50.206;15.978;2022-09-13T07:58:15;11.02;;;9.93;;
68168;SDS011;54981;50.206;15.978;2022-09-13T08:00:40;11.77;;;9.15;;
68168;SDS011;54981;50.206;15.978;2022-09-13T08:03:06;10.73;;;9.63;;
68168;SDS011;54981;50.206;15.978;2022-09-13T08:05:35;11.75;;;8.98;;
68168;SDS011;54981;50.206;15.978;2022-09-13T08:08:03;11.00;;;8.68;;
68168;SDS011;54981;50.206;15.978;2022-09-13T08:10:28;9.65;;;8.65;;
68168;SDS011;54981;50.206;15.978;2022-09-13T08:12:53;10.48;;;9.00;;
68168;SDS011;54981;50.206;15.978;2022-09-13T08:15:19;13.23;;;9.48;;
68168;SDS011;54981;50.206;15.978;2022-09-13T08:17:44;10.73;;;9.18;;
68168;SDS011;54981;50.206;15.978;2022-09-13T08:20:09;10.90;;;9.80;;
68168;SDS011;54981;50.206;15.978;2022-09-13T08:22:35;10.80;;;9.02;;
68168;SDS011;54981;50.206;15.978;2022-09-13T08:25:00;10.15;;;8.93;;
68168;SDS011;54981;50.206;15.978;2022-09-13T08:27:26;11.60;;;8.90;;
68168;SDS011;54981;50.206;15.978;2022-09-13T08:29:52;10.00;;;8.55;;
68168;SDS011;54981;50.206;15.978;2022-09-13T08:32:17;10.15;;;8.05;;
68168;SDS011;54981;50.206;15.978;2022-09-13T08:34:43;9.73;;;8.00;;
68168;SDS011;54981;50.206;15.978;2022-09-13T08:37:08;9.65;;;8.45;;
68168;SDS011;54981;50.206;15.978;2022-09-13T08:39:34;8.23;;;7.03;;
68168;SDS011;54981;50.206;15.978;2022-09-13T08:42:08;10.07;;;7.82;;
68168;SDS011;54981;50.206;15.978;2022-09-13T08:44:45;11.38;;;8.27;;
68168;SDS011;54981;50.206;15.978;2022-09-13T08:47:23;8.32;;;7.05;;
68168;SDS011;54981;50.206;15.978;2022-09-13T08:50:28;8.57;;;7.65;;
68168;SDS011;54981;50.206;15.978;2022-09-13T08:58:42;8.10;;;7.25;;
68168;SDS011;54981;50.206;15.978;2022-09-13T09:04:28;8.70;;;7.22;;
68168;SDS011;54981;50.206;15.978;2022-09-13T09:14:43;7.72;;;5.88;;
68168;SDS011;54981;50.206;15.978;2022-09-13T09:17:19;6.82;;;6.03;;
68168;SDS011;54981;50.206;15.978;2022-09-13T09:19:51;6.72;;;5.53;;
68168;SDS011;54981;50.206;15.978;2022-09-13T09:22:29;6.07;;;5.47;;
68168;SDS011;54981;50.206;15.978;2022-09-13T09:24:58;6.97;;;6.25;;
68168;SDS011;54981;50.206;15.978;2022-09-13T09:27:24;7.68;;;5.70;;
68168;SDS011;54981;50.206;15.978;2022-09-13T09:29:50;7.70;;;5.80;;
68168;SDS011;54981;50.206;15.978;2022-09-13T09:37:49;7.72;;;6.85;;
68168;SDS011;54981;50.206;15.978;2022-09-13T09:40:35;9.55;;;6.60;;
68168;SDS011;54981;50.206;15.978;2022-09-13T09:43:08;7.65;;;6.78;;
68168;SDS011;54981;50.206;15.978;2022-09-13T09:45:40;7.90;;;7.10;;
68168;SDS011;54981;50.206;15.978;2022-09-13T09:48:11;8.27;;;7.03;;
68168;SDS011;54981;50.206;15.978;2022-09-13T09:50:45;9.50;;;6.80;;
68168;SDS011;54981;50.206;15.978;2022-09-13T09:55:57;7.07;;;6.38;;
68168;SDS011;54981;50.206;15.978;2022-09-13T09:58:35;7.95;;;7.15;;
68168;SDS011;54981;50.206;15.978;2022-09-13T10:01:03;8.30;;;7.00;;
68168;SDS011;54981;50.206;15.978;2022-09-13T10:03:31;8.15;;;6.90;;
68168;SDS011;54981;50.206;15.978;2022-09-13T10:06:10;7.10;;;6.40;;
68168;SDS011;54981;50.206;15.978;2022-09-13T10:08:39;9.00;;;6.75;;
68168;SDS011;54981;50.206;15.978;2022-09-13T10:11:06;7.10;;;6.40;;
68168;SDS011;54981;50.206;15.978;2022-09-13T10:13:32;7.38;;;5.57;;
68168;SDS011;54981;50.206;15.978;2022-09-13T10:15:59;8.52;;;6.50;;
68168;SDS011;54981;50.206;15.978;2022-09-13T10:18:33;8.20;;;6.00;;
68168;SDS011;54981;50.206;15.978;2022-09-13T10:23:25;7.57;;;5.97;;
68168;SDS011;54981;50.206;15.978;2022-09-13T10:25:59;8.90;;;6.07;;
68168;SDS011;54981;50.206;15.978;2022-09-13T10:28:35;7.57;;;5.85;;
68168;SDS011;54981;50.206;15.978;2022-09-13T10:31:07;7.35;;;5.88;;
68168;SDS011;54981;50.206;15.978;2022-09-13T10:33:39;7.75;;;5.78;;
68168;SDS011;54981;50.206;15.978;2022-09-13T10:39:02;6.88;;;5.65;;
68168;SDS011;54981;50.206;15.978;2022-09-13T10:41:30;8.82;;;6.38;;
68168;SDS011;54981;50.206;15.978;2022-09-13T10:44:01;7.57;;;6.40;;
68168;SDS011;54981;50.206;15.978;2022-09-13T10:46:31;8.63;;;6.20;;
68168;SDS011;54981;50.206;15.978;2022-09-13T10:48:59;9.75;;;6.90;;
68168;SDS011;54981;50.206;15.978;2022-09-13T10:53:50;9.07;;;6.10;;
68168;SDS011;54981;50.206;15.978;2022-09-13T10:56:31;8.00;;;5.95;;
68168;SDS011;54981;50.206;15.978;2022-09-13T11:02:15;6.75;;;5.82;;
68168;SDS011;54981;50.206;15.978;2022-09-13T11:13:06;7.60;;;5.80;;
68168;SDS011;54981;50.206;15.978;2022-09-13T11:19:08;6.50;;;5.65;;
68168;SDS011;54981;50.206;15.978;2022-09-13T11:48:41;8.18;;;5.97;;
68168;SDS011;54981;50.206;15.978;2022-09-13T11:54:31;7.20;;;6.28;;
68168;SDS011;54981;50.206;15.978;2022-09-13T11:57:03;9.07;;;6.30;;
68168;SDS011;54981;50.206;15.978;2022-09-13T11:59:36;8.50;;;6.68;;
68168;SDS011;54981;50.206;15.978;2022-09-13T12:02:15;8.00;;;6.22;;
68168;SDS011;54981;50.206;15.978;2022-09-13T12:04:47;7.93;;;6.32;;
68168;SDS011;54981;50.206;15.978;2022-09-13T12:07:24;8.27;;;6.40;;
68168;SDS011;54981;50.206;15.978;2022-09-13T12:09:59;8.20;;;7.07;;
68168;SDS011;54981;50.206;15.978;2022-09-13T12:12:31;8.80;;;7.45;;
68168;SDS011;54981;50.206;15.978;2022-09-13T12:15:00;7.50;;;6.13;;
68168;SDS011;54981;50.206;15.978;2022-09-13T12:20:01;8.65;;;6.72;;
68168;SDS011;54981;50.206;15.978;2022-09-13T12:22:31;7.32;;;5.80;;
68168;SDS011;54981;50.206;15.978;2022-09-13T12:25:01;7.68;;;5.97;;
68168;SDS011;54981;50.206;15.978;2022-09-13T12:27:37;8.93;;;6.47;;
68168;SDS011;54981;50.206;15.978;2022-09-13T12:30:17;8.80;;;7.13;;
68168;SDS011;54981;50.206;15.978;2022-09-13T12:32:45;9.07;;;6.60;;
68168;SDS011;54981;50.206;15.978;2022-09-13T12:35:23;9.95;;;6.75;;
68168;SDS011;54981;50.206;15.978;2022-09-13T12:49:34;10.57;;;7.45;;
68168;SDS011;54981;50.206;15.978;2022-09-13T13:02:41;9.57;;;7.28;;
68168;SDS011;54981;50.206;15.978;2022-09-13T13:05:34;9.80;;;7.78;;
68168;SDS011;54981;50.206;15.978;2022-09-13T13:08:23;10.25;;;7.65;;
68168;SDS011;54981;50.206;15.978;2022-09-13T13:11:08;8.32;;;7.13;;
68168;SDS011;54981;50.206;15.978;2022-09-13T13:13:37;8.38;;;7.25;;
68168;SDS011;54981;50.206;15.978;2022-09-13T13:16:05;9.93;;;7.50;;
68168;SDS011;54981;50.206;15.978;2022-09-13T13:18:52;10.90;;;7.38;;
68168;SDS011;54981;50.206;15.978;2022-09-13T13:21:35;11.38;;;7.85;;
68168;SDS011;54981;50.206;15.978;2022-09-13T13:29:11;9.30;;;6.72;;
68168;SDS011;54981;50.206;15.978;2022-09-13T13:31:38;9.50;;;6.63;;
68168;SDS011;54981;50.206;15.978;2022-09-13T13:41:46;9.00;;;7.38;;
68168;SDS011;54981;50.206;15.978;2022-09-13T13:46:44;9.30;;;6.95;;
68168;SDS011;54981;50.206;15.978;2022-09-13T14:00:29;8.45;;;7.18;;
68168;SDS011;54981;50.206;15.978;2022-09-13T14:19:54;9.15;;;6.95;;
68168;SDS011;54981;50.206;15.978;2022-09-13T14:22:24;8.20;;;7.35;;
68168;SDS011;54981;50.206;15.978;2022-09-13T14:24:52;9.75;;;7.28;;
68168;SDS011;54981;50.206;15.978;2022-09-13T14:27:26;10.45;;;7.15;;
68168;SDS011;54981;50.206;15.978;2022-09-13T14:29:54;7.97;;;7.18;;
68168;SDS011;54981;50.206;15.978;2022-09-13T14:32:23;11.25;;;7.43;;
68168;SDS011;54981;50.206;15.978;2022-09-13T14:37:23;7.53;;;6.72;;
68168;SDS011;54981;50.206;15.978;2022-09-13T14:42:25;9.10;;;7.20;;
68168;SDS011;54981;50.206;15.978;2022-09-13T14:44:51;10.35;;;7.93;;
68168;SDS011;54981;50.206;15.978;2022-09-13T14:49:59;9.68;;;7.22;;
68168;SDS011;54981;50.206;15.978;2022-09-13T14:52:37;8.25;;;7.13;;
68168;SDS011;54981;50.206;15.978;2022-09-13T14:55:13;9.27;;;7.20;;
68168;SDS011;54981;50.206;15.978;2022-09-13T14:57:51;8.97;;;6.97;;
68168;SDS011;54981;50.206;15.978;2022-09-13T15:00:20;7.57;;;6.60;;
68168;SDS011;54981;50.206;15.978;2022-09-13T15:02:58;9.00;;;7.47;;
68168;SDS011;54981;50.206;15.978;2022-09-13T15:05:30;8.80;;;6.20;;
68168;SDS011;54981;50.206;15.978;2022-09-13T15:07:56;10.50;;;6.53;;
68168;SDS011;54981;50.206;15.978;2022-09-13T15:10:24;7.57;;;6.70;;
68168;SDS011;54981;50.206;15.978;2022-09-13T15:17:56;8.40;;;6.20;;
68168;SDS011;54981;50.206;15.978;2022-09-13T15:20:23;8.07;;;6.90;;
68168;SDS011;54981;50.206;15.978;2022-09-13T15:22:51;7.05;;;5.95;;
68168;SDS011;54981;50.206;15.978;2022-09-13T15:25:27;8.88;;;7.28;;
68168;SDS011;54981;50.206;15.978;2022-09-13T15:27:56;9.35;;;7.60;;
68168;SDS011;54981;50.206;15.978;2022-09-13T15:30:36;9.95;;;6.47;;
68168;SDS011;54981;50.206;15.978;2022-09-13T15:33:13;9.85;;;6.65;;
68168;SDS011;54981;50.206;15.978;2022-09-13T15:35:44;10.18;;;7.57;;
68168;SDS011;54981;50.206;15.978;2022-09-13T15:41:02;8.95;;;6.45;;
68168;SDS011;54981;50.206;15.978;2022-09-13T15:43:49;7.57;;;6.75;;
68168;SDS011;54981;50.206;15.978;2022-09-13T15:46:15;7.80;;;6.70;;
68168;SDS011;54981;50.206;15.978;2022-09-13T15:48:55;8.50;;;7.05;;
68168;SDS011;54981;50.206;15.978;2022-09-13T15:51:22;10.25;;;6.53;;
68168;SDS011;54981;50.206;15.978;2022-09-13T15:53:48;11.35;;;6.43;;
68168;SDS011;54981;50.206;15.978;2022-09-13T15:56:18;10.75;;;6.88;;
68168;SDS011;54981;50.206;15.978;2022-09-13T15:58:46;10.32;;;7.18;;
68168;SDS011;54981;50.206;15.978;2022-09-13T16:01:12;18.48;;;9.00;;
68168;SDS011;54981;50.206;15.978;2022-09-13T16:03:38;9.77;;;6.80;;
68168;SDS011;54981;50.206;15.978;2022-09-13T16:06:04;9.52;;;6.47;;
68168;SDS011;54981;50.206;15.978;2022-09-13T16:08:31;7.65;;;6.28;;
68168;SDS011;54981;50.206;15.978;2022-09-13T16:10:56;8.32;;;6.22;;
68168;SDS011;54981;50.206;15.978;2022-09-13T16:13:21;10.65;;;5.90;;
68168;SDS011;54981;50.206;15.978;2022-09-13T16:15:47;10.18;;;6.10;;
68168;SDS011;54981;50.206;15.978;2022-09-13T16:18:13;14.27;;;6.28;;
68168;SDS011;54981;50.206;15.978;2022-09-13T16:20:40;7.47;;;6.35;;
68168;SDS011;54981;50.206;15.978;2022-09-13T16:23:06;10.65;;;6.88;;
68168;SDS011;54981;50.206;15.978;2022-09-13T16:25:32;8.98;;;6.50;;
68168;SDS011;54981;50.206;15.978;2022-09-13T16:27:58;8.52;;;6.18;;
68168;SDS011;54981;50.206;15.978;2022-09-13T16:30:24;11.05;;;7.40;;
68168;SDS011;54981;50.206;15.978;2022-09-13T16:32:51;9.50;;;6.38;;
68168;SDS011;54981;50.206;15.978;2022-09-13T16:35:17;8.85;;;6.93;;
68168;SDS011;54981;50.206;15.978;2022-09-13T16:37:42;8.60;;;7.25;;
68168;SDS011;54981;50.206;15.978;2022-09-13T16:40:08;8.43;;;7.53;;
68168;SDS011;54981;50.206;15.978;2022-09-13T16:42:34;8.48;;;6.75;;
68168;SDS011;54981;50.206;15.978;2022-09-13T16:45:00;10.35;;;8.70;;
68168;SDS011;54981;50.206;15.978;2022-09-13T16:47:26;10.73;;;7.40;;
68168;SDS011;54981;50.206;15.978;2022-09-13T16:49:51;15.98;;;8.20;;
68168;SDS011;54981;50.206;15.978;2022-09-13T16:52:17;12.05;;;9.20;;
68168;SDS011;54981;50.206;15.978;2022-09-13T16:54:42;11.55;;;9.80;;
68168;SDS011;54981;50.206;15.978;2022-09-13T16:57:10;10.93;;;8.68;;
68168;SDS011;54981;50.206;15.978;2022-09-13T16:59:38;10.20;;;8.10;;
68168;SDS011;54981;50.206;15.978;2022-09-13T17:02:05;11.40;;;8.77;;
68168;SDS011;54981;50.206;15.978;2022-09-13T17:04:31;12.60;;;8.13;;
68168;SDS011;54981;50.206;15.978;2022-09-13T17:06:56;12.60;;;8.90;;
68168;SDS011;54981;50.206;15.978;2022-09-13T17:09:22;12.48;;;7.72;;
68168;SDS011;54981;50.206;15.978;2022-09-13T17:11:50;12.45;;;8.45;;
68168;SDS011;54981;50.206;15.978;2022-09-13T17:14:15;11.38;;;8.13;;
68168;SDS011;54981;50.206;15.978;2022-09-13T17:16:46;9.73;;;8.48;;
68168;SDS011;54981;50.206;15.978;2022-09-13T17:19:34;10.43;;;9.32;;
68168;SDS011;54981;50.206;15.978;2022-09-13T17:21:59;12.13;;;10.60;;
68168;SDS011;54981;50.206;15.978;2022-09-13T17:24:26;14.68;;;12.18;;
68168;SDS011;54981;50.206;15.978;2022-09-13T17:26:54;11.07;;;9.77;;
68168;SDS011;54981;50.206;15.978;2022-09-13T17:29:21;12.18;;;9.07;;
68168;SDS011;54981;50.206;15.978;2022-09-13T17:31:46;11.95;;;10.35;;
68168;SDS011;54981;50.206;15.978;2022-09-13T17:34:12;16.33;;;9.13;;
68168;SDS011;54981;50.206;15.978;2022-09-13T17:36:38;12.68;;;9.48;;
68168;SDS011;54981;50.206;15.978;2022-09-13T17:39:04;10.85;;;9.57;;
68168;SDS011;54981;50.206;15.978;2022-09-13T17:41:30;12.05;;;9.65;;
68168;SDS011;54981;50.206;15.978;2022-09-13T17:43:56;12.00;;;9.40;;
68168;SDS011;54981;50.206;15.978;2022-09-13T17:46:23;11.57;;;9.32;;
68168;SDS011;54981;50.206;15.978;2022-09-13T17:48:50;12.23;;;10.13;;
68168;SDS011;54981;50.206;15.978;2022-09-13T17:51:21;11.60;;;9.40;;
68168;SDS011;54981;50.206;15.978;2022-09-13T17:53:52;14.27;;;11.18;;
68168;SDS011;54981;50.206;15.978;2022-09-13T17:56:29;12.48;;;10.13;;
68168;SDS011;54981;50.206;15.978;2022-09-13T17:59:05;12.48;;;10.43;;
68168;SDS011;54981;50.206;15.978;2022-09-13T18:01:35;17.38;;;10.88;;
68168;SDS011;54981;50.206;15.978;2022-09-13T18:04:02;16.30;;;11.20;;
68168;SDS011;54981;50.206;15.978;2022-09-13T18:06:28;13.45;;;10.77;;
68168;SDS011;54981;50.206;15.978;2022-09-13T18:08:54;20.17;;;14.45;;
68168;SDS011;54981;50.206;15.978;2022-09-13T18:11:20;20.08;;;13.48;;
68168;SDS011;54981;50.206;15.978;2022-09-13T18:13:46;13.25;;;10.50;;